createdAt,value
2023-02-14T00:00:10.202Z,98223.75
2023-02-14T00:02:38.139Z,98217.00
2023-02-14T00:05:08.080Z,98208.88
2023-02-14T00:07:35.988Z,98207.00
2023-02-14T00:10:03.955Z,98212.84
2023-02-14T00:12:31.879Z,98207.75
2023-02-14T00:15:16.981Z,98209.50
2023-02-14T00:17:44.896Z,98205.16
2023-02-14T00:20:14.266Z,98210.97
2023-02-14T00:22:42.206Z,98209.63
2023-02-14T00:25:10.130Z,98199.75
2023-02-14T00:27:38.080Z,98211.09
2023-02-14T00:30:07.361Z,98204.34
2023-02-14T00:32:35.303Z,98203.81
2023-02-14T00:35:03.200Z,98201.13
2023-02-14T00:37:32.470Z,98191.97
2023-02-14T00:40:00.420Z,98193.66
2023-02-14T00:42:28.414Z,98189.31
2023-02-14T00:44:56.330Z,98191.84
2023-02-14T00:47:24.278Z,98197.72
2023-02-14T00:49:52.227Z,98198.16
2023-02-14T00:52:20.175Z,98198.16
2023-02-14T00:54:49.458Z,98190.53
2023-02-14T00:57:17.378Z,98201.28
2023-02-14T00:59:45.264Z,98197.91
2023-02-14T01:02:13.209Z,98193.88
2023-02-14T01:04:41.131Z,98184.72
2023-02-14T01:07:09.007Z,98190.56
2023-02-14T01:09:36.863Z,98185.16
2023-02-14T01:12:06.758Z,98183.38
2023-02-14T01:14:34.663Z,98187.22
2023-02-14T01:17:02.584Z,98182.44
2023-02-14T01:19:30.790Z,98176.53
2023-02-14T01:21:58.699Z,98183.81
2023-02-14T01:24:26.690Z,98191.22
2023-02-14T01:26:54.583Z,98176.44
2023-02-14T01:29:23.819Z,98183.94
2023-02-14T01:31:51.728Z,98180.44
2023-02-14T01:34:19.660Z,98179.66
2023-02-14T01:36:47.552Z,98169.84
2023-02-14T01:39:17.715Z,98178.91
2023-02-14T01:41:48.552Z,98171.34
2023-02-14T01:44:53.904Z,98173.84
2023-02-14T01:47:23.503Z,98171.25
2023-02-14T01:49:54.053Z,98166.16
2023-02-14T01:52:25.274Z,98161.84
2023-02-14T01:54:56.257Z,98165.34
2023-02-14T01:57:26.009Z,98166.00
2023-02-14T01:59:55.424Z,98166.91
2023-02-14T02:02:24.782Z,98171.34
2023-02-14T02:04:55.268Z,98170.31
2023-02-14T02:07:25.920Z,98171.94
2023-02-14T02:09:55.809Z,98170.25
2023-02-14T02:12:23.932Z,98158.13
2023-02-14T02:14:54.272Z,98164.16
2023-02-14T02:17:27.998Z,98156.81
2023-02-14T02:20:18.669Z,98162.69
2023-02-14T02:23:17.666Z,98155.19
2023-02-14T02:26:04.670Z,98151.84
2023-02-14T02:29:03.294Z,98136.09
2023-02-14T02:31:43.374Z,98143.50
2023-02-14T02:34:41.570Z,98137.72
2023-02-14T02:37:23.554Z,98140.50
2023-02-14T02:40:03.130Z,98140.25
2023-02-14T02:42:37.321Z,98125.97
2023-02-14T02:45:12.522Z,98137.41
2023-02-14T02:47:45.489Z,98133.19
2023-02-14T02:50:38.357Z,98135.59
2023-02-14T02:53:11.746Z,98134.75
2023-02-14T02:56:01.690Z,98144.25
2023-02-14T02:58:32.664Z,98129.81
2023-02-14T03:01:02.667Z,98131.56
2023-02-14T03:03:49.224Z,98122.50
2023-02-14T03:06:17.119Z,98127.56
2023-02-14T03:08:46.437Z,98125.22
2023-02-14T03:11:14.819Z,98123.69
2023-02-14T03:14:04.415Z,98124.53
2023-02-14T03:16:35.846Z,98125.31
2023-02-14T03:19:50.960Z,98121.09
2023-02-14T03:22:24.711Z,98117.63
2023-02-14T03:24:57.793Z,98115.88
2023-02-14T03:27:28.656Z,98115.13
2023-02-14T03:30:00.307Z,98121.56
2023-02-14T03:32:32.985Z,98125.59
2023-02-14T03:35:06.823Z,98125.50
2023-02-14T03:37:40.184Z,98128.88
2023-02-14T03:40:11.504Z,98121.47
2023-02-14T03:42:42.917Z,98119.69
2023-02-14T03:45:14.585Z,98113.31
2023-02-14T03:47:44.673Z,98119.13
2023-02-14T03:50:16.865Z,98117.41
2023-02-14T03:52:46.039Z,98121.50
2023-02-14T03:55:18.429Z,98121.28
2023-02-14T03:57:50.667Z,98124.31
2023-02-14T04:00:19.862Z,98108.88
2023-02-14T04:02:50.342Z,98117.84
2023-02-14T04:05:20.996Z,98108.63
2023-02-14T04:07:50.814Z,98114.41
2023-02-14T04:10:20.770Z,98105.94
2023-02-14T04:12:49.097Z,98113.16
2023-02-14T04:15:17.838Z,98117.31
2023-02-14T04:18:03.055Z,98118.22
2023-02-14T04:20:31.423Z,98112.56
2023-02-14T04:22:59.961Z,98109.34
2023-02-14T04:25:30.498Z,98097.81
2023-02-14T04:27:58.386Z,98097.59
2023-02-14T04:30:26.483Z,98097.47
2023-02-14T04:32:54.451Z,98091.97
2023-02-14T04:35:22.401Z,98088.59
2023-02-14T04:37:50.279Z,98090.19
2023-02-14T04:40:18.199Z,98085.09
2023-02-14T04:42:47.832Z,98079.19
2023-02-14T04:45:16.056Z,98088.06
2023-02-14T04:47:43.962Z,98081.38
2023-02-14T04:50:12.051Z,98077.06
2023-02-14T04:52:40.134Z,98072.75
2023-02-14T04:55:09.517Z,98072.72
2023-02-14T04:57:37.606Z,98071.00
2023-02-14T05:00:08.263Z,98074.34
2023-02-14T05:02:36.175Z,98066.13
2023-02-14T05:05:04.073Z,98065.16
2023-02-14T05:07:31.980Z,98064.41
2023-02-14T05:09:59.921Z,98063.72
2023-02-14T05:12:28.069Z,98065.50
2023-02-14T05:14:57.671Z,98059.03
2023-02-14T05:17:27.082Z,98058.31
2023-02-14T05:19:54.979Z,98054.19
2023-02-14T05:22:22.877Z,98050.25
2023-02-14T05:24:50.848Z,98053.44
2023-02-14T05:27:18.770Z,98058.28
2023-02-14T05:29:46.705Z,98046.44
2023-02-14T05:32:14.687Z,98044.66
2023-02-14T05:34:43.983Z,98052.06
2023-02-14T05:37:11.934Z,98053.47
2023-02-14T05:39:39.823Z,98055.09
2023-02-14T05:44:35.534Z,98064.00
2023-02-14T05:47:03.412Z,98056.50
2023-02-14T05:49:31.361Z,98061.56
2023-02-14T05:52:00.629Z,98054.25
2023-02-14T05:54:28.559Z,98066.38
2023-02-14T05:56:56.502Z,98060.84
2023-02-14T05:59:24.411Z,98063.09
2023-02-14T06:01:52.364Z,98063.25
2023-02-14T06:04:20.292Z,98058.34
2023-02-14T06:06:48.175Z,98057.47
2023-02-14T06:09:17.579Z,98066.59
2023-02-14T06:11:45.480Z,98070.81
2023-02-14T06:14:13.447Z,98067.34
2023-02-14T06:16:41.413Z,98080.56
2023-02-14T06:19:09.450Z,98069.03
2023-02-14T06:21:37.365Z,98069.84
2023-02-14T06:24:05.500Z,98078.81
2023-02-14T06:26:36.134Z,98081.31
2023-02-14T06:29:05.034Z,98085.47
2023-02-14T06:31:33.414Z,98093.88
2023-02-14T06:34:01.458Z,98093.25
2023-02-14T06:36:29.384Z,98095.63
2023-02-14T06:38:57.301Z,98079.16
2023-02-14T06:41:25.359Z,98089.44
2023-02-14T06:43:54.612Z,98084.56
2023-02-14T06:46:23.108Z,98084.41
2023-02-14T06:48:51.118Z,98082.75
2023-02-14T06:51:19.023Z,98092.16
2023-02-14T06:53:46.947Z,98099.91
2023-02-14T06:56:14.899Z,98093.75
2023-02-14T06:58:42.813Z,98088.06
2023-02-14T07:01:12.181Z,98089.38
2023-02-14T07:03:40.118Z,98087.81
2023-02-14T07:06:08.107Z,98083.75
2023-02-14T07:08:36.014Z,98076.56
2023-02-14T07:11:03.955Z,98075.88
2023-02-14T07:13:31.859Z,98080.09
2023-02-14T07:15:59.789Z,98075.44
2023-02-14T07:18:29.120Z,98079.47
2023-02-14T07:20:57.179Z,98077.84
2023-02-14T07:23:25.102Z,98078.81
2023-02-14T07:25:53.015Z,98069.59
2023-02-14T07:28:22.015Z,98061.44
2023-02-14T07:30:50.043Z,98062.63
2023-02-14T07:33:18.009Z,98071.06
2023-02-14T07:35:47.320Z,98064.53
2023-02-14T07:38:15.234Z,98071.06
2023-02-14T07:40:43.140Z,98067.69
2023-02-14T07:43:11.043Z,98069.47
2023-02-14T07:45:38.971Z,98068.59
2023-02-14T07:48:07.533Z,98076.13
2023-02-14T07:50:35.423Z,98076.03
2023-02-14T07:53:04.722Z,98071.78
2023-02-14T07:55:32.594Z,98077.63
2023-02-14T07:58:00.550Z,98084.16
2023-02-14T08:00:28.696Z,98082.63
2023-02-14T08:02:57.114Z,98089.78
2023-02-14T08:05:25.309Z,98088.13
2023-02-14T08:07:53.300Z,98085.53
2023-02-14T08:10:22.674Z,98085.06
2023-02-14T08:13:03.623Z,98090.13
2023-02-14T08:15:50.683Z,98081.81
2023-02-14T08:18:19.437Z,98082.59
2023-02-14T08:20:48.742Z,98075.94
2023-02-14T08:23:18.454Z,98081.03
2023-02-14T08:25:47.742Z,98079.31
2023-02-14T08:28:15.799Z,98080.31
2023-02-14T08:30:44.862Z,98083.91
2023-02-14T08:33:12.880Z,98079.69
2023-02-14T08:35:40.916Z,98077.22
2023-02-14T08:38:09.263Z,98075.66
2023-02-14T08:40:37.713Z,98078.97
2023-02-14T08:43:07.599Z,98070.78
2023-02-14T08:45:35.566Z,98075.84
2023-02-14T08:48:05.073Z,98075.81
2023-02-14T08:50:33.217Z,98075.84
2023-02-14T08:53:01.510Z,98084.31
2023-02-14T08:55:29.509Z,98080.97
2023-02-14T08:57:58.072Z,98086.84
2023-02-14T09:00:27.789Z,98081.84
2023-02-14T09:02:55.790Z,98082.63
2023-02-14T09:05:24.388Z,98086.88
2023-02-14T09:07:52.567Z,98077.66
2023-02-14T09:10:20.493Z,98072.63
2023-02-14T09:12:48.382Z,98079.34
2023-02-14T09:15:16.277Z,98083.53
2023-02-14T09:17:45.727Z,98083.53
2023-02-14T09:20:15.480Z,98081.00
2023-02-14T09:22:43.576Z,98075.16
2023-02-14T09:25:12.014Z,98074.28
2023-02-14T09:27:40.046Z,98081.00
2023-02-14T09:30:09.583Z,98088.53
2023-02-14T09:32:37.567Z,98075.09
2023-02-14T09:35:07.987Z,98086.00
2023-02-14T09:37:53.226Z,98085.16
2023-02-14T09:40:21.964Z,98075.06
2023-02-14T09:43:02.009Z,98081.78
2023-02-14T09:45:31.388Z,98083.47
2023-02-14T09:48:02.839Z,98077.53
2023-02-14T09:50:35.415Z,98086.75
2023-02-14T09:53:08.260Z,98082.47
2023-02-14T09:55:40.202Z,98085.72
2023-02-14T09:58:14.764Z,98083.28
2023-02-14T10:00:47.276Z,98085.69
2023-02-14T10:04:02.732Z,98083.13
2023-02-14T10:06:47.768Z,98083.97
2023-02-14T10:09:32.623Z,98080.34
2023-02-14T10:12:02.095Z,98080.19
2023-02-14T10:14:33.941Z,98075.94
2023-02-14T10:17:07.062Z,98075.69
2023-02-14T10:19:39.467Z,98074.44
2023-02-14T10:22:12.346Z,98070.16
2023-02-14T10:24:43.746Z,98078.41
2023-02-14T10:27:19.403Z,98077.56
2023-02-14T10:29:47.367Z,98074.28
2023-02-14T10:32:16.232Z,98072.50
2023-02-14T10:34:48.185Z,98070.91
2023-02-14T10:37:29.044Z,98075.09
2023-02-14T10:40:10.667Z,98075.91
2023-02-14T10:42:46.395Z,98073.91
2023-02-14T10:45:19.925Z,98069.09
2023-02-14T10:47:53.812Z,98068.88
2023-02-14T10:50:25.987Z,98060.56
2023-02-14T10:53:00.971Z,98051.59
2023-02-14T10:55:38.335Z,98059.88
2023-02-14T10:58:07.711Z,98055.97
2023-02-14T11:00:36.980Z,98049.94
2023-02-14T11:03:08.553Z,98053.53
2023-02-14T11:05:38.933Z,98042.41
2023-02-14T11:08:15.845Z,98041.47
2023-02-14T11:10:43.830Z,98040.69
2023-02-14T11:13:33.982Z,98048.19
2023-02-14T11:16:03.812Z,98047.56
2023-02-14T11:18:35.633Z,98039.88
2023-02-14T11:21:06.087Z,98030.56
2023-02-14T11:23:37.905Z,98035.88
2023-02-14T11:26:08.356Z,98040.81
2023-02-14T11:28:36.536Z,98042.56
2023-02-14T11:31:05.210Z,98037.53
2023-02-14T11:33:38.755Z,98028.25
2023-02-14T11:36:11.892Z,98036.41
2023-02-14T11:38:42.255Z,98036.34
2023-02-14T11:41:11.716Z,98033.69
2023-02-14T11:43:40.838Z,98031.84
2023-02-14T11:46:15.269Z,98033.50
2023-02-14T11:48:58.871Z,98030.13
2023-02-14T11:51:29.210Z,98032.63
2023-02-14T11:54:04.764Z,98028.53
2023-02-14T11:56:48.889Z,98013.44
2023-02-14T11:59:26.866Z,98012.06
2023-02-14T12:01:55.385Z,98009.66
2023-02-14T12:04:26.606Z,98014.03
2023-02-14T12:07:14.441Z,98001.94
2023-02-14T12:09:44.342Z,97995.16
2023-02-14T12:12:19.002Z,97991.25
2023-02-14T12:14:47.209Z,98000.13
2023-02-14T12:17:30.103Z,97991.84
2023-02-14T12:20:03.419Z,97988.78
2023-02-14T12:22:35.256Z,97995.56
2023-02-14T12:25:08.620Z,97990.03
2023-02-14T12:27:45.591Z,97988.56
2023-02-14T12:30:16.961Z,97981.78
2023-02-14T12:32:49.145Z,97977.38
2023-02-14T12:35:19.225Z,97978.44
2023-02-14T12:38:03.966Z,97974.19
2023-02-14T12:40:39.073Z,97974.81
2023-02-14T12:43:33.679Z,97965.75
2023-02-14T12:46:12.861Z,97963.50
2023-02-14T12:48:54.346Z,97960.78
2023-02-14T12:51:26.142Z,97971.47
2023-02-14T12:54:02.414Z,97967.66
2023-02-14T12:56:41.562Z,97967.09
2023-02-14T12:59:19.178Z,97968.38
2023-02-14T13:02:11.546Z,97965.19
2023-02-14T13:04:55.503Z,97974.56
2023-02-14T13:07:38.121Z,97971.19
2023-02-14T13:10:14.566Z,97979.19
2023-02-14T13:12:48.867Z,97975.66
2023-02-14T13:15:23.541Z,97977.34
2023-02-14T13:17:54.870Z,97976.88
2023-02-14T13:20:35.410Z,97978.03
2023-02-14T13:23:06.190Z,97978.03
2023-02-14T13:25:40.492Z,97978.84
2023-02-14T13:28:14.179Z,97984.03
2023-02-14T13:30:43.180Z,97977.47
2023-02-14T13:33:27.104Z,97973.94
2023-02-14T13:35:58.090Z,97979.41
2023-02-14T13:38:27.260Z,97976.97
2023-02-14T13:40:56.098Z,97979.34
2023-02-14T13:43:47.632Z,97979.50
2023-02-14T13:46:16.684Z,97973.72
2023-02-14T13:48:48.065Z,97970.13
2023-02-14T13:51:15.975Z,97981.06
2023-02-14T13:53:45.357Z,97978.84
2023-02-14T13:56:34.632Z,97981.88
2023-02-14T13:59:06.427Z,97983.53
2023-02-14T14:01:40.550Z,97979.47
2023-02-14T14:04:35.810Z,97978.50
2023-02-14T14:07:23.171Z,97971.69
2023-02-14T14:09:56.325Z,97970.31
2023-02-14T14:12:45.879Z,97967.69
2023-02-14T14:15:17.488Z,97959.84
2023-02-14T14:17:50.054Z,97971.41
2023-02-14T14:20:47.905Z,97966.13
2023-02-14T14:23:43.297Z,97964.31
2023-02-14T14:26:36.233Z,97965.88
2023-02-14T14:29:11.390Z,97961.66
2023-02-14T14:31:42.130Z,97964.06
2023-02-14T14:34:17.488Z,97963.25
2023-02-14T14:36:45.650Z,97959.84
2023-02-14T14:39:13.636Z,97958.19
2023-02-14T14:41:41.894Z,97953.53
2023-02-14T14:44:09.843Z,97956.25
2023-02-14T14:46:38.295Z,97945.97
2023-02-14T14:49:10.778Z,97949.56
2023-02-14T14:51:38.892Z,97950.31
2023-02-14T14:54:08.482Z,97943.63
2023-02-14T14:56:39.402Z,97946.97
2023-02-14T14:59:21.282Z,97935.41
2023-02-14T15:01:50.285Z,97935.47
2023-02-14T15:04:20.898Z,97932.13
2023-02-14T15:06:50.424Z,97922.97
2023-02-14T15:09:23.843Z,97930.59
2023-02-14T15:12:11.218Z,97933.34
2023-02-14T15:14:42.442Z,97924.78
2023-02-14T15:17:17.484Z,97919.59
2023-02-14T15:19:48.651Z,97932.53
2023-02-14T15:22:21.193Z,97920.16
2023-02-14T15:24:49.541Z,97917.00
2023-02-14T15:27:18.615Z,97926.41
2023-02-14T15:29:55.316Z,97927.34
2023-02-14T15:32:24.459Z,97927.56
2023-02-14T15:34:53.951Z,97927.59
2023-02-14T15:37:22.604Z,97924.31
2023-02-14T15:39:52.430Z,97927.81
2023-02-14T15:42:22.821Z,97932.09
2023-02-14T15:44:50.768Z,97922.91
2023-02-14T15:47:18.700Z,97929.72
2023-02-14T15:49:47.585Z,97925.56
2023-02-14T15:52:16.912Z,97927.25
2023-02-14T15:54:46.454Z,97931.47
2023-02-14T15:57:21.198Z,97926.50
2023-02-14T15:59:49.192Z,97928.22
2023-02-14T16:02:29.315Z,97927.41
2023-02-14T16:05:04.774Z,97926.59
2023-02-14T16:07:34.265Z,97927.50
2023-02-14T16:10:21.745Z,97928.38
2023-02-14T16:12:58.322Z,97926.69
2023-02-14T16:15:27.403Z,97927.56
2023-02-14T16:17:55.381Z,97928.41
2023-02-14T16:20:39.827Z,97930.94
2023-02-14T16:23:21.120Z,97938.50
2023-02-14T16:25:49.771Z,97939.31
2023-02-14T16:28:18.295Z,97943.50
2023-02-14T16:30:48.064Z,97937.66
2023-02-14T16:33:19.937Z,97941.00
2023-02-14T16:35:48.018Z,97931.78
2023-02-14T16:38:18.694Z,97947.69
2023-02-14T16:40:48.355Z,97946.00
2023-02-14T16:43:17.255Z,97951.00
2023-02-14T16:45:45.913Z,97946.00
2023-02-14T16:48:15.809Z,97945.16
2023-02-14T16:50:44.505Z,97939.28
2023-02-14T16:53:22.655Z,97941.78
2023-02-14T16:55:50.954Z,97944.28
2023-02-14T16:58:19.546Z,97945.13
2023-02-14T17:00:47.477Z,97947.63
2023-02-14T17:03:15.391Z,97949.28
2023-02-14T17:05:43.442Z,97949.28
2023-02-14T17:08:13.529Z,97944.28
2023-02-14T17:10:43.174Z,97948.44
2023-02-14T17:13:11.693Z,97951.78
2023-02-14T17:15:40.845Z,97956.81
2023-02-14T17:18:11.615Z,97961.00
2023-02-14T17:20:39.711Z,97964.38
2023-02-14T17:23:07.608Z,97959.34
2023-02-14T17:25:35.611Z,97965.22
2023-02-14T17:28:05.266Z,97968.53
2023-02-14T17:30:33.208Z,97969.31
2023-02-14T17:33:01.429Z,97964.34
2023-02-14T17:35:30.015Z,97967.66
2023-02-14T17:37:57.962Z,97968.50
2023-02-14T17:40:25.867Z,97965.91
2023-02-14T17:42:53.766Z,97963.34
2023-02-14T17:45:23.330Z,97960.88
2023-02-14T17:47:51.234Z,97965.06
2023-02-14T17:50:19.203Z,97968.44
2023-02-14T17:52:47.183Z,97964.22
2023-02-14T17:55:15.814Z,97959.25
2023-02-14T17:57:43.773Z,97960.91
2023-02-14T18:00:14.179Z,97971.00
2023-02-14T18:02:43.487Z,97969.31
2023-02-14T18:05:12.287Z,97970.16
2023-02-14T18:07:40.187Z,97967.63
2023-02-14T18:10:08.826Z,97963.41
2023-02-14T18:12:36.741Z,97960.88
2023-02-14T18:15:05.629Z,97960.91
2023-02-14T18:17:33.583Z,97960.09
2023-02-14T18:20:03.359Z,97955.09
2023-02-14T18:22:32.488Z,97957.59
2023-02-14T18:25:00.407Z,97952.63
2023-02-14T18:27:28.289Z,97953.41
2023-02-14T18:29:56.550Z,97949.19
2023-02-14T18:32:24.466Z,97952.56
2023-02-14T18:34:52.493Z,97947.59
2023-02-14T18:37:22.162Z,97945.94
2023-02-14T18:39:50.069Z,97936.75
2023-02-14T18:42:17.970Z,97934.22
2023-02-14T18:44:45.851Z,97935.88
2023-02-14T18:47:14.009Z,97929.19
2023-02-14T18:49:41.879Z,97929.19
2023-02-14T18:52:10.412Z,97925.00
2023-02-14T18:54:39.719Z,97923.34
2023-02-14T18:57:08.243Z,97920.00
2023-02-14T18:59:36.148Z,97911.66
2023-02-14T19:02:04.117Z,97925.88
2023-02-14T19:04:32.225Z,97912.50
2023-02-14T19:07:00.154Z,97918.34
2023-02-14T19:09:29.480Z,97916.69
2023-02-14T19:12:00.058Z,97911.66
2023-02-14T19:14:28.187Z,97904.97
2023-02-14T19:16:56.092Z,97895.75
2023-02-14T19:19:24.118Z,97873.13
2023-02-14T19:21:52.336Z,97893.22
2023-02-14T19:24:21.220Z,97894.91
2023-02-14T19:26:49.407Z,97900.78
2023-02-14T19:29:20.242Z,97904.94
2023-02-14T19:31:49.895Z,97898.25
2023-02-14T19:34:19.139Z,97909.97
2023-02-14T19:36:48.140Z,97901.63
2023-02-14T19:39:16.659Z,97894.06
2023-02-14T19:41:44.552Z,97897.41
2023-02-14T19:44:14.786Z,97889.03
2023-02-14T19:46:46.085Z,97894.91
2023-02-14T19:49:15.772Z,97895.75
2023-02-14T19:51:44.575Z,97897.41
2023-02-14T19:54:12.983Z,97894.06
2023-02-14T19:56:42.785Z,97895.75
2023-02-14T19:59:11.187Z,97894.84
2023-02-14T20:01:41.530Z,97903.22
2023-02-14T20:04:14.660Z,97888.13
2023-02-14T20:06:42.924Z,97890.69
2023-02-14T20:09:10.941Z,97894.88
2023-02-14T20:11:41.482Z,97904.91
2023-02-14T20:14:10.026Z,97898.19
2023-02-14T20:16:38.285Z,97893.97
2023-02-14T20:19:11.977Z,97885.56
2023-02-14T20:21:42.058Z,97896.50
2023-02-14T20:24:10.616Z,97897.34
2023-02-14T20:26:41.615Z,97898.16
2023-02-14T20:29:11.237Z,97900.69
2023-02-14T20:31:43.642Z,97895.66
2023-02-14T20:34:12.188Z,97899.03
2023-02-14T20:36:42.637Z,97895.69
2023-02-14T20:39:11.394Z,97896.53
2023-02-14T20:41:39.342Z,97893.19
2023-02-14T20:44:09.068Z,97887.31
2023-02-14T20:46:37.248Z,97893.16
2023-02-14T20:49:05.483Z,97894.03
2023-02-14T20:51:35.007Z,97889.81
2023-02-14T20:54:05.529Z,97890.66
2023-02-14T20:56:33.508Z,97887.25
2023-02-14T20:59:01.766Z,97896.47
2023-02-14T21:01:30.237Z,97884.75
2023-02-14T21:03:58.266Z,97893.94
2023-02-14T21:06:29.987Z,97895.66
2023-02-14T21:08:58.543Z,97898.09
2023-02-14T21:11:28.951Z,97895.59
2023-02-14T21:13:59.559Z,97891.41
2023-02-14T21:16:28.739Z,97883.00
2023-02-14T21:18:59.566Z,97883.00
2023-02-14T21:21:32.500Z,97883.00
2023-02-14T21:24:01.340Z,97883.78
2023-02-14T21:26:30.985Z,97882.13
2023-02-14T21:28:58.878Z,97877.94
2023-02-14T21:31:26.851Z,97881.31
2023-02-14T21:33:57.262Z,97877.09
2023-02-14T21:36:27.795Z,97875.31
2023-02-14T21:38:58.014Z,97874.47
2023-02-14T21:41:27.060Z,97870.31
2023-02-14T21:43:57.404Z,97869.50
2023-02-14T21:46:27.463Z,97870.38
2023-02-14T21:49:13.170Z,97872.06
2023-02-14T21:51:41.332Z,97866.22
2023-02-14T21:54:09.673Z,97867.00
2023-02-14T21:56:38.921Z,97859.50
2023-02-14T21:59:08.993Z,97858.66
2023-02-14T22:01:38.707Z,97859.50
2023-02-14T22:04:09.179Z,97862.09
2023-02-14T22:06:39.076Z,97862.84
2023-02-14T22:09:07.403Z,97863.69
2023-02-14T22:11:35.910Z,97854.28
2023-02-14T22:14:03.964Z,97857.81
2023-02-14T22:16:33.449Z,97859.44
2023-02-14T22:19:01.338Z,97854.34
2023-02-14T22:21:31.050Z,97863.56
2023-02-14T22:23:59.083Z,97862.78
2023-02-14T22:26:28.525Z,97857.81
2023-02-14T22:28:59.158Z,97857.00
2023-02-14T22:31:28.650Z,97858.69
2023-02-14T22:33:57.935Z,97854.47
2023-02-14T22:36:25.853Z,97846.03
2023-02-14T22:38:54.041Z,97850.31
2023-02-14T22:41:23.957Z,97846.13
2023-02-14T22:43:52.730Z,97836.84
2023-02-14T22:46:22.175Z,97835.16
2023-02-14T22:48:50.917Z,97837.69
2023-02-14T22:51:23.479Z,97837.75
2023-02-14T22:53:54.072Z,97829.34
2023-02-14T22:56:23.411Z,97833.56
2023-02-14T22:58:57.984Z,97831.84
2023-02-14T23:01:26.298Z,97838.63
2023-02-14T23:03:54.788Z,97826.88
2023-02-14T23:06:24.465Z,97825.06
2023-02-14T23:08:52.659Z,97829.28
2023-02-14T23:11:22.066Z,97825.94
2023-02-14T23:14:06.434Z,97828.38
2023-02-14T23:16:51.607Z,97818.31
2023-02-14T23:19:38.317Z,97807.44
2023-02-14T23:22:08.969Z,97815.00
2023-02-14T23:24:37.007Z,97815.88
2023-02-14T23:27:05.321Z,97812.63
2023-02-14T23:29:33.547Z,97812.59
2023-02-14T23:32:01.514Z,97815.16
2023-02-14T23:34:31.292Z,97816.00
2023-02-14T23:36:59.683Z,97805.84
2023-02-14T23:39:29.096Z,97805.81
2023-02-14T23:41:57.003Z,97800.78
2023-02-14T23:44:26.025Z,97802.50
2023-02-14T23:46:56.157Z,97801.69
2023-02-14T23:49:24.828Z,97801.59
2023-02-14T23:51:54.203Z,97795.66
2023-02-14T23:54:23.842Z,97797.44
2023-02-14T23:56:53.880Z,97796.56
2023-02-14T23:59:22.999Z,97791.56
